Peru, Indiana
Current Conditions -  °F | °C
As of 5:58 AM on Thursday 18 Dec 2014 (Local Time) from KGUS Reporting Station
Overcast Overcast  
Wind Chill: -7°   Ceiling: 2300
Heat Index: -4°   Visibility: 10mi
Dew Point: -5°   Wind: 5mph
Humidity: 90%   Direction: 350°N
Pressure: 30.24"   Gusts: NA
Location:  40.75°N, 86.07°W
Report Text: KGUS 181058Z AUTO 35004KT 10SM OVC023 M04/M05 A3024 RMK AO2 SLP255 T10381052
Loading
Personal Weather Stations






























Interactive Weather Map New forecast layout! Learn more

10-Day Weather Forecast

Advertisements
Track Severe Weather on mobile